Time;durP1;ratioP1;P1;durP2;ratioP2;P2;SDS_P1;SDS_P2;PMS_P1;PMS_P2;Temp;Humidity;BMP_temperature;BMP_pressure;BME280_temperature;BME280_humidity;BME280_pressure;Samples;Min_cycle;Max_cycle;Signal;HPM_P1;HPM_P2
2022/07/03 00:01:23;;;;;;;2.78;1.70;;;18.60;69.80;;;;;;4960266;28;20039;-62
2022/07/03 00:03:48;;;;;;;2.45;1.70;;;18.60;69.60;;;;;;4946832;28;22063;-61
2022/07/03 00:06:14;;;;;;;2.08;1.50;;;18.60;69.50;;;;;;4950996;28;20085;-64
2022/07/03 00:08:40;;;;;;;2.08;1.60;;;18.60;69.40;;;;;;4953911;28;20031;-62
2022/07/03 00:11:05;;;;;;;2.78;1.60;;;18.60;69.50;;;;;;4948344;28;20037;-62
2022/07/03 00:13:31;;;;;;;1.70;1.60;;;18.60;69.50;;;;;;4948583;28;20548;-61
2022/07/03 00:15:57;;;;;;;1.80;1.60;;;18.60;69.60;;;;;;4949710;28;20047;-62
2022/07/03 00:18:23;;;;;;;2.92;1.45;;;18.50;69.50;;;;;;4956986;28;20043;-62
2022/07/03 00:20:59;;;;;;;1.88;1.52;;;18.50;69.50;;;;;;4955896;28;20051;-64
2022/07/03 00:23:28;;;;;;;1.50;1.40;;;18.30;70.30;;;;;;4955209;28;20039;-61
2022/07/03 00:25:55;;;;;;;2.13;1.77;;;18.20;69.90;;;;;;4963390;28;20043;-64
2022/07/03 00:28:21;;;;;;;2.53;1.40;;;18.20;70.00;;;;;;4949560;28;20042;-64
2022/07/03 00:30:48;;;;;;;3.05;1.40;;;18.10;70.20;;;;;;4950069;28;20046;-64
2022/07/03 00:33:15;;;;;;;2.17;1.35;;;18.00;70.60;;;;;;4968286;28;20088;-64
2022/07/03 00:35:43;;;;;;;1.40;1.30;;;17.90;70.70;;;;;;4953505;28;20505;-62
2022/07/03 00:38:11;;;;;;;1.60;1.30;;;17.90;71.20;;;;;;4958784;28;20504;-62
2022/07/03 00:40:37;;;;;;;1.25;1.20;;;17.90;71.40;;;;;;4946686;28;20054;-62
2022/07/03 00:43:04;;;;;;;2.08;1.38;;;17.80;71.10;;;;;;4955269;28;20039;-62
2022/07/03 00:45:33;;;;;;;1.45;1.35;;;17.80;71.10;;;;;;4947986;28;20118;-62
2022/07/03 00:48:00;;;;;;;1.27;1.17;;;17.80;71.60;;;;;;4954204;28;20092;-62
2022/07/03 00:50:35;;;;;;;1.58;1.30;;;17.70;71.70;;;;;;4946746;28;21067;-63
2022/07/03 00:53:02;;;;;;;1.67;1.58;;;17.60;72.60;;;;;;4952246;28;20050;-64
2022/07/03 00:55:28;;;;;;;1.50;1.40;;;17.60;72.00;;;;;;4956807;28;20031;-61
2022/07/03 00:57:56;;;;;;;1.65;1.40;;;17.50;72.10;;;;;;4954615;28;20061;-63
2022/07/03 01:00:23;;;;;;;3.17;1.40;;;17.50;72.60;;;;;;4952782;28;20042;-63
2022/07/03 01:02:55;;;;;;;1.50;1.40;;;17.50;72.60;;;;;;4960124;28;20059;-64
2022/07/03 01:05:43;;;;;;;1.50;1.40;;;17.50;73.20;;;;;;4960657;28;20037;-61
2022/07/03 01:08:36;;;;;;;1.77;1.27;;;17.40;73.80;;;;;;4953177;28;20125;-63
2022/07/03 01:11:35;;;;;;;1.30;1.20;;;17.40;73.80;;;;;;4952190;28;20108;-64
2022/07/03 01:14:36;;;;;;;4.07;1.35;;;17.40;73.70;;;;;;4954083;28;20379;-62
2022/07/03 01:17:11;;;;;;;2.35;1.25;;;17.40;73.60;;;;;;4956731;28;20035;-61
2022/07/03 01:19:38;;;;;;;3.28;1.60;;;17.30;72.80;;;;;;4964877;28;20083;-63
2022/07/03 01:22:34;;;;;;;2.35;1.30;;;17.30;72.80;;;;;;4956681;28;20042;-62
2022/07/03 01:25:23;;;;;;;2.55;1.48;;;17.20;73.80;;;;;;4954486;28;20030;-64
2022/07/03 01:28:00;;;;;;;2.28;1.60;;;17.20;73.20;;;;;;4955288;28;20031;-63
2022/07/03 01:30:29;;;;;;;2.15;1.60;;;17.10;74.00;;;;;;4959632;28;20034;-63
2022/07/03 01:33:04;;;;;;;1.55;1.45;;;17.00;73.30;;;;;;4957204;28;20034;-64
2022/07/03 01:35:39;;;;;;;4.22;1.58;;;17.00;74.10;;;;;;4953506;28;20042;-63
2022/07/03 01:38:07;;;;;;;3.42;1.60;;;17.00;74.10;;;;;;4957790;28;20043;-64
2022/07/03 01:40:38;;;;;;;1.52;1.40;;;16.90;73.90;;;;;;4960181;28;20103;-63
2022/07/03 01:43:09;;;;;;;2.10;1.33;;;16.90;74.50;;;;;;4959449;28;20084;-64
2022/07/03 01:45:41;;;;;;;1.67;1.30;;;16.90;74.60;;;;;;4956632;28;20615;-63
2022/07/03 01:48:10;;;;;;;2.25;1.40;;;16.90;74.20;;;;;;4953844;28;20509;-63
2022/07/03 01:50:37;;;;;;;1.50;1.40;;;16.90;74.20;;;;;;4952943;28;20056;-64
2022/07/03 01:53:06;;;;;;;2.63;1.50;;;16.80;74.70;;;;;;4955432;28;20066;-64
2022/07/03 01:55:33;;;;;;;1.48;1.38;;;16.90;74.40;;;;;;4957259;28;20195;-63
2022/07/03 01:57:59;;;;;;;2.05;1.20;;;16.90;74.40;;;;;;4953977;28;20058;-64
2022/07/03 02:00:26;;;;;;;1.73;1.55;;;16.80;74.20;;;;;;4956669;28;20134;-63
2022/07/03 02:03:03;;;;;;;1.50;1.40;;;16.80;74.30;;;;;;4952577;28;20043;-63
2022/07/03 02:05:41;;;;;;;1.38;1.27;;;16.80;74.90;;;;;;4954859;28;20065;-64
2022/07/03 02:08:48;;;;;;;1.45;1.35;;;16.80;74.80;;;;;;4955782;28;20038;-63
2022/07/03 02:11:15;;;;;;;1.40;1.30;;;16.70;75.40;;;;;;4950637;28;20047;-64
2022/07/03 02:13:52;;;;;;;2.20;1.40;;;16.70;74.20;;;;;;4954654;28;20042;-63
2022/07/03 02:16:20;;;;;;;2.25;1.40;;;16.60;75.10;;;;;;4958404;28;20043;-64
2022/07/03 02:19:03;;;;;;;1.60;1.50;;;16.60;74.90;;;;;;4956380;28;20315;-63
2022/07/03 02:21:30;;;;;;;1.70;1.60;;;16.60;75.30;;;;;;4956263;28;20092;-64
2022/07/03 02:24:19;;;;;;;2.45;1.48;;;16.60;75.10;;;;;;4960801;28;20057;-64
2022/07/03 02:26:58;;;;;;;1.80;1.20;;;16.60;75.80;;;;;;4958427;28;20027;-63
2022/07/03 02:29:35;;;;;;;1.40;1.30;;;16.60;75.80;;;;;;4958393;28;20413;-63
2022/07/03 02:32:06;;;;;;;2.70;1.80;;;16.60;75.60;;;;;;4951702;28;20133;-63
2022/07/03 02:34:34;;;;;;;3.28;1.52;;;16.60;75.30;;;;;;4953689;28;20660;-64
2022/07/03 02:37:10;;;;;;;2.47;1.67;;;16.60;74.90;;;;;;4954726;28;20042;-64
2022/07/03 02:39:45;;;;;;;1.30;1.30;;;16.60;75.30;;;;;;4959241;28;20118;-63
2022/07/03 02:42:24;;;;;;;2.75;1.50;;;16.50;75.30;;;;;;4956602;28;20042;-62
2022/07/03 02:44:54;;;;;;;1.85;1.75;;;16.50;75.90;;;;;;4958010;28;20954;-63
2022/07/03 02:47:24;;;;;;;1.88;1.65;;;16.50;75.40;;;;;;4954303;28;20782;-64
2022/07/03 02:50:08;;;;;;;2.25;1.60;;;16.50;75.70;;;;;;4951342;28;20053;-64
2022/07/03 02:52:43;;;;;;;3.50;1.88;;;16.50;75.80;;;;;;4952633;28;20307;-64
2022/07/03 02:55:33;;;;;;;1.70;1.60;;;16.40;76.00;;;;;;4955334;28;20095;-63
2022/07/03 02:58:23;;;;;;;1.85;1.75;;;16.50;76.10;;;;;;4953341;28;20096;-63
2022/07/03 03:01:08;;;;;;;2.08;1.58;;;16.50;75.80;;;;;;4953661;28;20041;-63
2022/07/03 03:03:34;;;;;;;;;;;16.40;76.00;;;;;;4957551;28;20053;-63
2022/07/03 03:06:22;;;;;;;2.58;1.35;;;16.50;75.70;;;;;;4958859;28;19918;-64
2022/07/03 03:08:50;;;;;;;2.88;1.60;;;16.40;74.90;;;;;;4959827;28;20065;-63
2022/07/03 03:11:42;;;;;;;1.80;1.70;;;16.40;75.10;;;;;;4953715;28;20046;-64
2022/07/03 03:14:13;;;;;;;1.90;1.80;;;16.40;76.30;;;;;;4968487;28;20436;-64
2022/07/03 03:16:55;;;;;;;1.73;1.63;;;16.40;75.60;;;;;;4959543;28;20034;-64
2022/07/03 03:19:22;;;;;;;3.13;1.67;;;16.30;76.10;;;;;;4957694;28;20041;-63
2022/07/03 03:22:11;;;;;;;2.45;1.60;;;16.30;75.80;;;;;;4959698;28;20035;-63
2022/07/03 03:24:37;;;;;;;2.83;1.70;;;16.30;76.80;;;;;;4963881;28;20083;-63
2022/07/03 03:27:03;;;;;;;1.40;1.35;;;16.30;75.70;;;;;;4960594;28;20431;-64
2022/07/03 03:29:29;;;;;;;2.47;1.70;;;16.20;75.70;;;;;;4961548;28;20092;-63
2022/07/03 03:31:55;;;;;;;1.88;1.77;;;16.20;75.60;;;;;;4956927;28;20041;-63
2022/07/03 03:34:23;;;;;;;1.80;1.70;;;16.20;75.70;;;;;;4961488;28;20039;-64
2022/07/03 03:36:49;;;;;;;1.67;1.42;;;16.20;76.10;;;;;;4958569;28;20061;-63
2022/07/03 03:39:15;;;;;;;3.22;1.70;;;16.10;76.20;;;;;;4962387;28;20496;-64
2022/07/03 03:41:40;;;;;;;1.67;1.58;;;16.20;76.20;;;;;;4960146;28;20119;-64
2022/07/03 03:44:06;;;;;;;1.50;1.30;;;16.20;76.20;;;;;;4960036;28;20563;-63
2022/07/03 03:46:31;;;;;;;1.80;1.52;;;16.20;76.10;;;;;;4957677;28;20039;-64
2022/07/03 03:48:57;;;;;;;1.65;1.40;;;16.20;76.10;;;;;;4959378;28;20043;-64
2022/07/03 03:51:23;;;;;;;1.88;1.60;;;16.20;76.10;;;;;;4960949;28;20042;-64
2022/07/03 03:53:49;;;;;;;4.22;1.65;;;16.10;76.00;;;;;;4961109;28;20046;-63
2022/07/03 03:56:14;;;;;;;1.55;1.45;;;16.10;76.00;;;;;;4964166;28;20041;-64
2022/07/03 03:58:41;;;;;;;1.65;1.50;;;16.10;76.20;;;;;;4966563;28;20058;-64
2022/07/03 04:01:08;;;;;;;1.95;1.70;;;16.00;76.30;;;;;;4959572;28;20035;-63
2022/07/03 04:03:35;;;;;;;1.55;1.25;;;16.00;76.60;;;;;;4960551;28;20043;-64
2022/07/03 04:06:02;;;;;;;3.33;1.60;;;15.90;76.80;;;;;;4958276;28;20043;-64
2022/07/03 04:08:29;;;;;;;2.63;1.65;;;15.90;77.00;;;;;;4961417;28;20713;-64
2022/07/03 04:10:55;;;;;;;1.60;1.40;;;15.90;77.30;;;;;;4956416;28;20814;-64
2022/07/03 04:13:21;;;;;;;1.80;1.45;;;15.90;77.20;;;;;;4955000;28;20469;-61
2022/07/03 04:15:48;;;;;;;2.65;1.50;;;15.90;77.30;;;;;;4958738;28;20068;-63
2022/07/03 04:18:13;;;;;;;3.28;1.52;;;16.00;77.50;;;;;;4959510;28;20337;-63
2022/07/03 04:20:39;;;;;;;1.65;1.48;;;16.00;77.50;;;;;;4963661;28;20161;-64
2022/07/03 04:23:05;;;;;;;2.53;1.60;;;16.00;77.70;;;;;;4954052;28;20094;-63
2022/07/03 04:25:31;;;;;;;2.38;1.48;;;16.00;77.70;;;;;;4957697;28;20159;-64
2022/07/03 04:27:56;;;;;;;1.55;1.42;;;16.00;77.70;;;;;;4953150;28;20265;-63
2022/07/03 04:30:22;;;;;;;1.92;1.52;;;16.10;77.70;;;;;;4960803;28;20069;-64
2022/07/03 04:32:49;;;;;;;2.85;1.70;;;16.00;77.70;;;;;;4958981;28;20478;-65
2022/07/03 04:35:15;;;;;;;1.90;1.80;;;16.10;77.70;;;;;;4963818;28;20161;-63
2022/07/03 04:37:44;;;;;;;1.60;1.50;;;16.00;77.90;;;;;;4955638;28;20451;-63
2022/07/03 04:40:11;;;;;;;3.35;1.70;;;16.00;78.40;;;;;;4952912;28;20074;-63
2022/07/03 04:42:37;;;;;;;1.60;1.50;;;16.00;78.30;;;;;;4962027;28;20048;-63
2022/07/03 04:45:03;;;;;;;1.83;1.73;;;16.10;78.40;;;;;;4955101;28;20175;-63
2022/07/03 04:47:30;;;;;;;1.95;1.50;;;16.10;78.60;;;;;;4951804;28;20062;-63
2022/07/03 04:49:55;;;;;;;1.67;1.58;;;16.10;78.70;;;;;;4955220;28;20595;-64
2022/07/03 04:52:22;;;;;;;2.38;1.63;;;16.10;78.80;;;;;;4953653;28;20248;-63
2022/07/03 04:54:47;;;;;;;1.88;1.77;;;16.20;78.90;;;;;;4951572;28;20049;-63
2022/07/03 04:57:13;;;;;;;3.65;1.80;;;16.20;79.00;;;;;;4960456;28;20042;-64
2022/07/03 04:59:39;;;;;;;3.05;1.90;;;16.20;79.20;;;;;;4958227;28;20037;-64
2022/07/03 05:02:04;;;;;;;2.22;2.08;;;16.30;79.40;;;;;;4954272;28;20035;-64
2022/07/03 05:04:30;;;;;;;1.95;1.85;;;16.30;79.60;;;;;;4955453;28;20088;-63
2022/07/03 05:06:56;;;;;;;2.38;2.17;;;16.40;80.00;;;;;;4953921;28;20063;-64
2022/07/03 05:09:21;;;;;;;2.20;2.10;;;16.50;80.10;;;;;;4950361;28;20054;-63
2022/07/03 05:11:47;;;;;;;2.10;2.00;;;16.60;80.30;;;;;;4945354;28;20027;-63
2022/07/03 05:14:13;;;;;;;2.22;2.03;;;16.70;80.50;;;;;;4959817;28;20055;-64
2022/07/03 05:16:38;;;;;;;2.80;2.22;;;16.80;80.50;;;;;;4957581;28;20082;-64
2022/07/03 05:19:04;;;;;;;2.38;2.08;;;16.90;80.40;;;;;;4967250;28;20135;-63
2022/07/03 05:21:30;;;;;;;2.25;2.05;;;17.00;80.50;;;;;;4957268;28;20031;-63
2022/07/03 05:23:56;;;;;;;2.17;1.95;;;17.10;80.60;;;;;;4953991;28;20238;-63
2022/07/03 05:26:22;;;;;;;3.72;1.85;;;17.30;80.80;;;;;;4958590;28;20254;-64
2022/07/03 05:28:47;;;;;;;4.65;2.00;;;17.40;80.80;;;;;;4961753;28;20488;-64
2022/07/03 05:31:13;;;;;;;2.35;2.15;;;17.50;80.70;;;;;;4959997;28;20076;-63
2022/07/03 05:33:38;;;;;;;3.30;2.10;;;17.60;80.60;;;;;;4949929;28;20031;-64
2022/07/03 05:36:04;;;;;;;2.17;2.00;;;17.80;80.40;;;;;;4956977;28;20038;-63
2022/07/03 05:41:18;;;;;;;4.18;2.08;;;18.00;80.50;;;;;;4957171;28;20091;-64
2022/07/03 05:43:44;;;;;;;2.10;2.00;;;18.10;80.10;;;;;;4957066;28;20131;-64
2022/07/03 05:46:10;;;;;;;1.83;1.73;;;18.20;80.00;;;;;;4957555;28;20035;-64
2022/07/03 05:48:36;;;;;;;2.17;2.00;;;18.40;79.70;;;;;;4956834;28;20133;-64
2022/07/03 05:51:02;;;;;;;2.20;1.85;;;18.50;80.00;;;;;;4957079;28;20032;-64
2022/07/03 05:53:27;;;;;;;2.42;2.05;;;18.60;80.10;;;;;;4947807;28;20051;-64
2022/07/03 05:55:53;;;;;;;4.32;1.85;;;18.70;80.60;;;;;;4955085;28;20058;-63
2022/07/03 05:58:19;;;;;;;1.88;1.77;;;18.90;80.50;;;;;;4957721;28;20066;-64
2022/07/03 06:00:44;;;;;;;2.25;2.13;;;19.00;80.50;;;;;;4957152;28;20050;-63
2022/07/03 06:03:10;;;;;;;1.98;1.88;;;19.10;80.50;;;;;;4950455;28;20050;-64
2022/07/03 06:05:36;;;;;;;2.10;1.90;;;19.20;80.20;;;;;;4962386;28;20371;-64
2022/07/03 06:08:02;;;;;;;2.00;1.90;;;19.40;80.50;;;;;;4960122;28;20030;-64
2022/07/03 06:10:28;;;;;;;2.00;1.90;;;19.50;80.30;;;;;;4950988;28;20043;-64
2022/07/03 06:12:54;;;;;;;2.10;2.00;;;19.60;80.30;;;;;;4946179;28;20725;-64
2022/07/03 06:15:20;;;;;;;2.33;1.55;;;19.70;80.00;;;;;;4959616;28;20089;-64
2022/07/03 06:17:46;;;;;;;1.70;1.60;;;19.90;79.80;;;;;;4958859;28;20105;-63
2022/07/03 06:20:12;;;;;;;2.03;1.70;;;20.00;79.60;;;;;;4963543;28;20038;-64
2022/07/03 06:22:38;;;;;;;1.90;1.80;;;20.10;79.40;;;;;;4951375;28;20034;-65
2022/07/03 06:25:05;;;;;;;1.75;1.40;;;20.20;78.70;;;;;;4954119;28;20039;-65
2022/07/03 06:27:31;;;;;;;1.80;1.70;;;20.40;78.10;;;;;;4957837;28;20544;-63
2022/07/03 06:29:56;;;;;;;1.63;1.52;;;20.50;77.30;;;;;;4962150;28;20065;-64
2022/07/03 06:32:22;;;;;;;3.22;1.60;;;20.60;76.80;;;;;;4951803;28;20047;-64
2022/07/03 06:34:48;;;;;;;2.35;1.42;;;20.70;76.20;;;;;;4960009;28;20057;-64
2022/07/03 06:37:14;;;;;;;1.63;1.50;;;20.80;75.90;;;;;;4957176;28;20042;-64
2022/07/03 06:39:40;;;;;;;3.60;1.30;;;20.90;75.40;;;;;;4962547;28;20045;-64
2022/07/03 06:42:06;;;;;;;1.50;1.40;;;21.00;75.10;;;;;;4961185;28;20043;-63
2022/07/03 06:44:32;;;;;;;1.38;1.27;;;21.10;74.70;;;;;;4962009;28;20053;-63
2022/07/03 06:46:58;;;;;;;1.50;1.40;;;21.20;74.50;;;;;;4959357;28;20069;-63
2022/07/03 06:49:24;;;;;;;2.00;1.20;;;21.30;74.20;;;;;;4958657;28;20122;-63
2022/07/03 06:51:50;;;;;;;2.55;1.20;;;21.40;73.80;;;;;;4953589;28;20035;-63
2022/07/03 06:54:15;;;;;;;2.95;1.40;;;21.50;73.50;;;;;;4949343;28;20077;-63
2022/07/03 06:56:44;;;;;;;1.65;1.30;;;21.60;73.10;;;;;;4954580;28;20089;-63
2022/07/03 06:59:10;;;;;;;1.30;1.20;;;21.70;72.90;;;;;;4952390;28;20054;-64
2022/07/03 07:01:35;;;;;;;2.67;1.33;;;21.80;72.10;;;;;;4950674;28;20841;-63
2022/07/03 07:04:02;;;;;;;1.20;1.05;;;21.90;71.90;;;;;;4943767;28;20050;-64
2022/07/03 07:06:28;;;;;;;1.30;1.20;;;21.90;71.80;;;;;;4952501;28;20038;-63
2022/07/03 07:08:54;;;;;;;1.42;1.10;;;22.00;71.20;;;;;;4951941;28;20039;-64
2022/07/03 07:11:19;;;;;;;1.10;1.00;;;22.10;70.60;;;;;;4945330;28;20043;-63
2022/07/03 07:13:45;;;;;;;1.25;1.00;;;22.20;70.00;;;;;;4948223;28;20539;-63
2022/07/03 07:16:11;;;;;;;1.23;1.13;;;22.30;69.50;;;;;;4951319;28;20046;-63
2022/07/03 07:18:39;;;;;;;1.10;1.00;;;22.40;69.30;;;;;;4959107;28;20030;-63
2022/07/03 07:21:04;;;;;;;1.10;1.00;;;22.50;68.90;;;;;;4949909;28;20062;-64
2022/07/03 07:23:30;;;;;;;1.20;1.02;;;22.50;68.40;;;;;;4954298;28;20146;-63
2022/07/03 07:25:57;;;;;;;1.10;1.00;;;22.60;68.10;;;;;;4957611;28;20035;-65
2022/07/03 07:28:22;;;;;;;0.90;0.90;;;22.70;67.10;;;;;;4962660;28;20031;-64
2022/07/03 07:30:48;;;;;;;0.80;0.80;;;22.70;67.40;;;;;;4956852;28;20133;-65
2022/07/03 07:33:13;;;;;;;1.05;0.80;;;22.90;67.10;;;;;;4955604;28;20038;-63
2022/07/03 07:35:39;;;;;;;1.08;0.95;;;22.90;66.50;;;;;;4956388;28;20047;-64
2022/07/03 07:38:05;;;;;;;0.82;0.82;;;23.00;66.10;;;;;;4953204;28;20039;-64
2022/07/03 07:40:30;;;;;;;0.80;0.80;;;23.00;65.70;;;;;;4957226;28;20488;-64
2022/07/03 07:42:56;;;;;;;1.83;0.85;;;23.20;65.10;;;;;;4956360;28;20436;-64
2022/07/03 07:45:22;;;;;;;1.27;0.90;;;23.20;64.80;;;;;;4953469;28;20034;-64
2022/07/03 07:47:48;;;;;;;0.90;0.90;;;23.30;64.80;;;;;;4953793;28;20672;-64
2022/07/03 07:50:14;;;;;;;1.10;0.80;;;23.40;63.90;;;;;;4960306;28;20142;-64
2022/07/03 07:52:40;;;;;;;1.08;0.70;;;23.40;63.40;;;;;;4968883;23;20039;-63
2022/07/03 07:55:06;;;;;;;0.60;0.60;;;23.60;61.80;;;;;;4957241;28;20049;-64
2022/07/03 07:57:40;;;;;;;0.70;0.70;;;23.60;61.60;;;;;;4959094;28;20396;-64
2022/07/03 08:00:11;;;;;;;1.00;0.68;;;23.70;60.50;;;;;;4957741;28;20038;-64
2022/07/03 08:05:36;;;;;;;2.80;0.63;;;23.90;61.30;;;;;;4934800;28;20038;-64
2022/07/03 08:08:13;;;;;;;1.55;0.60;;;24.00;60.50;;;;;;4938753;28;20291;-63
2022/07/03 08:10:43;;;;;;;0.50;0.50;;;24.10;59.00;;;;;;4938359;28;20035;-63
2022/07/03 08:13:10;;;;;;;0.40;0.40;;;24.20;59.30;;;;;;4935711;28;20043;-64
2022/07/03 08:15:37;;;;;;;0.60;0.60;;;24.30;59.00;;;;;;4935199;28;20112;-63
2022/07/03 08:18:04;;;;;;;2.95;0.63;;;24.40;58.70;;;;;;4938001;28;20122;-64
2022/07/03 08:20:30;;;;;;;0.50;0.50;;;24.50;58.40;;;;;;4937540;28;20412;-63
2022/07/03 08:22:56;;;;;;;0.55;0.55;;;24.60;58.30;;;;;;4935815;28;20520;-63
2022/07/03 08:25:22;;;;;;;0.38;0.38;;;24.70;57.60;;;;;;4935280;28;20039;-64
2022/07/03 08:27:48;;;;;;;0.50;0.50;;;24.80;57.80;;;;;;4938612;28;20629;-64
2022/07/03 08:30:15;;;;;;;0.40;0.40;;;24.90;56.50;;;;;;4941752;28;20035;-64
2022/07/03 08:32:41;;;;;;;0.40;0.40;;;25.00;55.90;;;;;;4935880;28;20032;-63
2022/07/03 08:35:07;;;;;;;0.47;0.40;;;25.00;55.20;;;;;;4939333;28;20036;-63
2022/07/03 08:37:33;;;;;;;0.50;0.50;;;25.20;55.00;;;;;;4939835;28;20062;-64
2022/07/03 08:39:58;;;;;;;1.10;0.60;;;25.20;55.60;;;;;;4937435;28;21653;-64
2022/07/03 08:42:26;;;;;;;0.40;0.40;;;25.30;55.10;;;;;;4934951;28;20450;-63
2022/07/03 08:44:54;;;;;;;0.50;0.50;;;25.40;54.90;;;;;;4933287;28;20046;-64
2022/07/03 08:47:21;;;;;;;0.40;0.38;;;25.50;54.20;;;;;;4936112;28;20039;-64
2022/07/03 08:49:48;;;;;;;0.73;0.40;;;25.60;54.60;;;;;;4938902;28;20113;-64
2022/07/03 08:52:14;;;;;;;0.98;0.40;;;25.70;54.20;;;;;;4936041;28;20043;-64
2022/07/03 08:54:40;;;;;;;0.63;0.47;;;25.80;53.40;;;;;;4936657;28;20500;-64
2022/07/03 08:57:06;;;;;;;0.35;0.32;;;25.90;53.10;;;;;;4939461;28;20497;-63
2022/07/03 08:59:39;;;;;;;0.30;0.30;;;26.00;52.40;;;;;;4936908;28;20043;-63
2022/07/03 09:02:05;;;;;;;0.85;0.40;;;26.10;51.10;;;;;;4935248;28;20046;-64
2022/07/03 09:04:35;;;;;;;0.47;0.35;;;26.20;51.70;;;;;;4934346;28;20142;-64
2022/07/03 09:07:01;;;;;;;1.40;0.43;;;26.30;50.80;;;;;;4937441;28;20504;-64
2022/07/03 09:09:27;;;;;;;0.30;0.30;;;26.40;51.40;;;;;;4938712;28;20039;-63
2022/07/03 09:11:53;;;;;;;0.40;0.40;;;26.60;51.00;;;;;;4934913;28;20047;-64
2022/07/03 09:14:19;;;;;;;1.08;0.35;;;26.70;50.40;;;;;;4936078;28;20413;-64
2022/07/03 09:16:45;;;;;;;2.67;0.40;;;26.70;50.40;;;;;;4943092;28;20126;-64
2022/07/03 09:19:11;;;;;;;0.30;0.30;;;26.90;49.60;;;;;;4938543;28;20046;-64
2022/07/03 09:21:40;;;;;;;0.52;0.30;;;26.90;49.60;;;;;;4941664;28;20032;-64
2022/07/03 09:24:08;;;;;;;0.90;0.40;;;27.10;49.70;;;;;;4938924;28;20525;-64
2022/07/03 09:26:35;;;;;;;0.40;0.40;;;27.20;49.60;;;;;;4940190;28;20447;-64
2022/07/03 09:29:02;;;;;;;1.38;0.30;;;27.20;49.70;;;;;;4934751;28;20039;-64
2022/07/03 09:31:29;;;;;;;0.85;0.30;;;27.40;49.10;;;;;;4936743;28;20035;-64
2022/07/03 09:34:02;;;;;;;0.15;0.13;;;27.50;48.20;;;;;;4942199;28;20187;-64
2022/07/03 09:36:38;;;;;;;0.52;0.20;;;27.50;47.10;;;;;;4944552;28;20126;-64
2022/07/03 09:39:36;;;;;;;0.50;0.40;;;27.70;46.10;;;;;;4938053;28;20042;-63
2022/07/03 09:42:05;;;;;;;0.57;0.40;;;27.80;46.20;;;;;;4941667;28;20047;-64
2022/07/03 09:44:42;;;;;;;0.30;0.20;;;27.80;47.00;;;;;;4938133;28;20153;-64
2022/07/03 09:47:24;;;;;;;0.20;0.20;;;27.90;45.30;;;;;;4938329;28;20047;-63
2022/07/03 09:49:54;;;;;;;0.38;0.25;;;28.00;45.20;;;;;;4938640;28;20066;-63
2022/07/03 09:52:38;;;;;;;1.10;0.40;;;28.00;46.30;;;;;;4938812;28;20033;-64
2022/07/03 09:55:10;;;;;;;0.35;0.35;;;28.10;43.60;;;;;;4937641;28;20046;-63
2022/07/03 09:57:43;;;;;;;0.20;0.20;;;28.10;44.20;;;;;;4936760;28;20229;-63
2022/07/03 10:00:12;;;;;;;0.20;0.20;;;28.20;43.80;;;;;;4936912;28;20040;-63
2022/07/03 10:03:04;;;;;;;0.38;0.20;;;28.30;44.60;;;;;;4936498;28;20043;-63
2022/07/03 10:05:37;;;;;;;0.25;0.20;;;28.40;43.70;;;;;;4941399;28;20039;-64
2022/07/03 10:08:10;;;;;;;0.65;0.30;;;28.50;43.40;;;;;;4942231;28;20104;-64
2022/07/03 10:10:41;;;;;;;0.20;0.17;;;28.60;42.70;;;;;;4940921;28;20602;-63
2022/07/03 10:13:07;;;;;;;0.55;0.28;;;28.70;43.50;;;;;;4938515;28;20043;-63
2022/07/03 10:15:37;;;;;;;0.20;0.20;;;28.70;43.70;;;;;;4937620;28;20586;-63
2022/07/03 10:18:12;;;;;;;0.20;0.20;;;28.80;43.30;;;;;;4932039;28;20472;-63
2022/07/03 10:20:48;;;;;;;0.85;0.20;;;28.90;42.10;;;;;;4935010;28;20042;-64
2022/07/03 10:59:34;;;;;;;0.65;0.20;;;29.40;40.60;;;;;;5066495;22;20055;-67
2022/07/03 11:02:22;;;;;;;0.20;0.20;;;29.50;39.80;;;;;;5046665;28;20040;-67
2022/07/03 11:04:59;;;;;;;0.38;0.20;;;29.50;40.00;;;;;;5058636;28;20048;-67
2022/07/03 11:07:29;;;;;;;0.50;0.28;;;29.60;39.00;;;;;;5173017;22;20470;-64
2022/07/03 11:10:10;;;;;;;0.32;0.30;;;29.60;39.50;;;;;;5093490;28;20032;-64
2022/07/03 11:12:56;;;;;;;0.63;0.20;;;29.60;37.60;;;;;;5097021;28;20024;-64
2022/07/03 11:15:28;;;;;;;1.05;0.30;;;29.60;39.70;;;;;;5094394;28;20039;-64
2022/07/03 11:18:12;;;;;;;0.20;0.20;;;29.50;39.20;;;;;;5099762;27;20032;-64
2022/07/03 11:21:25;;;;;;;0.68;0.30;;;29.60;38.40;;;;;;5098685;28;20522;-64
2022/07/03 11:23:53;;;;;;;0.30;0.20;;;29.60;37.10;;;;;;5082306;28;20172;-64
2022/07/03 11:26:22;;;;;;;0.60;0.30;;;29.60;39.60;;;;;;5100990;27;20028;-64
2022/07/03 11:28:48;;;;;;;0.30;0.28;;;29.60;39.30;;;;;;5098869;28;20041;-64
2022/07/03 11:31:13;;;;;;;0.80;0.22;;;29.60;39.80;;;;;;5098793;27;20060;-64
2022/07/03 11:33:42;;;;;;;1.20;0.20;;;29.60;40.30;;;;;;5096682;28;20131;-64
2022/07/03 11:36:11;;;;;;;0.82;0.30;;;29.70;39.70;;;;;;5098349;28;20492;-64
2022/07/03 11:38:37;;;;;;;0.35;0.20;;;29.70;40.00;;;;;;5095029;27;20039;-64
2022/07/03 11:41:07;;;;;;;0.38;0.20;;;29.70;40.20;;;;;;5097649;28;20510;-64
2022/07/03 11:43:36;;;;;;;0.35;0.20;;;29.80;40.00;;;;;;5099517;27;20035;-64
2022/07/03 11:46:03;;;;;;;0.50;0.17;;;29.90;40.30;;;;;;5099508;27;20023;-67
2022/07/03 11:48:30;;;;;;;0.35;0.22;;;29.90;39.90;;;;;;5084701;28;20498;-65
2022/07/03 11:51:03;;;;;;;0.40;0.20;;;30.00;39.80;;;;;;5095662;28;20128;-66
2022/07/03 11:53:36;;;;;;;0.30;0.20;;;30.00;38.90;;;;;;5097284;28;20034;-64
2022/07/03 11:56:07;;;;;;;1.00;0.20;;;30.10;38.80;;;;;;5099212;27;20031;-64
2022/07/03 11:58:53;;;;;;;1.05;0.22;;;30.10;38.50;;;;;;5095375;27;20031;-66
2022/07/03 12:01:28;;;;;;;0.70;0.25;;;30.10;38.40;;;;;;5094442;27;20498;-66
2022/07/03 12:04:02;;;;;;;1.30;0.30;;;30.10;38.90;;;;;;5096416;27;20406;-66
2022/07/03 12:06:34;;;;;;;0.20;0.20;;;30.20;38.90;;;;;;5098749;27;20085;-66
2022/07/03 12:09:00;;;;;;;0.35;0.30;;;30.20;38.20;;;;;;5077043;28;20499;-65
2022/07/03 12:11:25;;;;;;;0.20;0.20;;;30.20;38.60;;;;;;5079143;28;20046;-66
2022/07/03 12:13:52;;;;;;;1.95;0.25;;;30.30;38.50;;;;;;5097896;28;20035;-64
2022/07/03 12:16:18;;;;;;;1.70;0.30;;;30.30;38.20;;;;;;5096724;28;20118;-65
2022/07/03 12:18:48;;;;;;;0.20;0.20;;;30.40;38.30;;;;;;5093850;28;20127;-65
2022/07/03 12:21:14;;;;;;;1.02;0.25;;;30.40;38.40;;;;;;5096764;28;20605;-65
2022/07/03 12:23:44;;;;;;;0.50;0.20;;;30.40;38.40;;;;;;5098278;28;20039;-65
2022/07/03 12:26:10;;;;;;;0.20;0.20;;;30.40;38.30;;;;;;5095138;28;20036;-65
2022/07/03 12:28:36;;;;;;;0.20;0.20;;;30.50;38.80;;;;;;5098679;28;20411;-64
2022/07/03 12:31:02;;;;;;;0.30;0.20;;;30.60;38.80;;;;;;5095082;28;20080;-66
2022/07/03 12:33:30;;;;;;;0.77;0.30;;;30.60;38.30;;;;;;5097274;28;20048;-66
2022/07/03 12:36:03;;;;;;;0.30;0.30;;;30.60;38.40;;;;;;5096438;28;20129;-65
2022/07/03 12:38:30;;;;;;;1.43;0.30;;;30.60;38.30;;;;;;5097085;28;20359;-65
2022/07/03 12:41:22;;;;;;;1.13;0.40;;;30.70;38.10;;;;;;5094125;28;20088;-66
2022/07/03 12:43:49;;;;;;;0.38;0.30;;;30.70;37.80;;;;;;5089873;28;20040;-65
2022/07/03 12:46:32;;;;;;;0.73;0.30;;;30.70;37.90;;;;;;5098001;28;20059;-65
2022/07/03 12:49:00;;;;;;;0.30;0.30;;;30.80;37.40;;;;;;5097211;28;20450;-65
2022/07/03 12:51:40;;;;;;;0.52;0.30;;;30.80;38.40;;;;;;5098404;28;20397;-66
2022/07/03 12:54:33;;;;;;;0.30;0.30;;;30.80;37.30;;;;;;5101549;28;20028;-66
2022/07/03 13:00:09;;;;;;;2.47;0.30;;;30.80;38.10;;;;;;5102676;28;20165;-65
2022/07/03 13:02:36;;;;;;;0.85;0.40;;;30.90;38.90;;;;;;5101483;28;20059;-65
2022/07/03 13:05:14;;;;;;;1.88;0.22;;;30.90;39.10;;;;;;5100962;28;20032;-65
2022/07/03 13:07:41;;;;;;;0.52;0.40;;;30.90;38.80;;;;;;5102652;27;20028;-66
2022/07/03 13:10:07;;;;;;;0.40;0.40;;;30.90;38.20;;;;;;5101567;28;20028;-66
2022/07/03 13:12:33;;;;;;;0.40;0.30;;;30.90;38.20;;;;;;5099824;28;20055;-65
2022/07/03 13:15:03;;;;;;;2.33;0.30;;;30.90;37.70;;;;;;5101119;27;20034;-65
2022/07/03 13:17:53;;;;;;;0.40;0.30;;;30.90;38.50;;;;;;5101713;28;20035;-66
2022/07/03 13:20:30;;;;;;;1.52;0.40;;;30.90;38.90;;;;;;5098955;27;20036;-64
2022/07/03 13:23:04;;;;;;;1.48;0.40;;;30.90;38.50;;;;;;5098754;28;20040;-65
2022/07/03 13:25:31;;;;;;;0.30;0.30;;;30.90;38.30;;;;;;5101570;28;20040;-66
2022/07/03 13:28:07;;;;;;;0.75;0.40;;;30.90;38.80;;;;;;5100895;28;20533;-66
2022/07/03 13:30:33;;;;;;;0.52;0.40;;;30.90;38.10;;;;;;5101629;27;20513;-66
2022/07/03 13:32:59;;;;;;;2.78;0.50;;;30.90;38.60;;;;;;5100957;28;20028;-66
2022/07/03 13:35:25;;;;;;;0.55;0.38;;;30.90;39.40;;;;;;5099500;28;20048;-66
2022/07/03 13:37:50;;;;;;;0.88;0.45;;;31.00;39.50;;;;;;5100512;28;20039;-65
2022/07/03 13:40:16;;;;;;;0.52;0.32;;;31.00;39.40;;;;;;5100252;28;20494;-65
2022/07/03 13:42:42;;;;;;;0.40;0.40;;;31.10;39.20;;;;;;5099255;28;20036;-65
2022/07/03 13:45:08;;;;;;;0.65;0.50;;;31.10;39.00;;;;;;5099817;28;20043;-65
2022/07/03 13:47:33;;;;;;;0.43;0.30;;;31.10;38.20;;;;;;5100618;28;20035;-66